sensor_id;sensor_type;location;lat;lon;timestamp;P1;durP1;ratioP1;P2;durP2;ratioP2
41468;SDS011;27206;47.032;15.484;2023-04-08T00:01:46;12.48;;;5.00;;
41468;SDS011;27206;47.032;15.484;2023-04-08T00:04:12;11.02;;;5.18;;
41468;SDS011;27206;47.032;15.484;2023-04-08T00:06:38;7.57;;;3.97;;
41468;SDS011;27206;47.032;15.484;2023-04-08T00:09:04;10.43;;;4.78;;
41468;SDS011;27206;47.032;15.484;2023-04-08T00:11:30;11.30;;;5.15;;
41468;SDS011;27206;47.032;15.484;2023-04-08T00:13:55;12.13;;;5.47;;
41468;SDS011;27206;47.032;15.484;2023-04-08T00:16:21;11.25;;;4.50;;
41468;SDS011;27206;47.032;15.484;2023-04-08T00:18:47;9.70;;;4.70;;
41468;SDS011;27206;47.032;15.484;2023-04-08T00:21:16;10.63;;;4.85;;
41468;SDS011;27206;47.032;15.484;2023-04-08T00:23:44;12.13;;;5.35;;
41468;SDS011;27206;47.032;15.484;2023-04-08T00:26:10;11.73;;;5.38;;
41468;SDS011;27206;47.032;15.484;2023-04-08T00:28:36;14.57;;;5.40;;
41468;SDS011;27206;47.032;15.484;2023-04-08T00:31:02;12.95;;;5.43;;
41468;SDS011;27206;47.032;15.484;2023-04-08T00:33:28;11.35;;;4.80;;
41468;SDS011;27206;47.032;15.484;2023-04-08T00:35:53;13.68;;;5.72;;
41468;SDS011;27206;47.032;15.484;2023-04-08T00:38:19;14.45;;;5.80;;
41468;SDS011;27206;47.032;15.484;2023-04-08T00:40:45;11.27;;;5.57;;
41468;SDS011;27206;47.032;15.484;2023-04-08T00:43:10;13.38;;;5.22;;
41468;SDS011;27206;47.032;15.484;2023-04-08T00:45:36;12.25;;;5.82;;
41468;SDS011;27206;47.032;15.484;2023-04-08T00:48:03;9.50;;;4.72;;
41468;SDS011;27206;47.032;15.484;2023-04-08T00:50:29;15.05;;;6.20;;
41468;SDS011;27206;47.032;15.484;2023-04-08T00:52:55;11.32;;;5.40;;
41468;SDS011;27206;47.032;15.484;2023-04-08T00:55:20;15.80;;;6.10;;
41468;SDS011;27206;47.032;15.484;2023-04-08T00:57:46;11.73;;;5.45;;
41468;SDS011;27206;47.032;15.484;2023-04-08T01:00:12;15.98;;;6.00;;
41468;SDS011;27206;47.032;15.484;2023-04-08T01:08:17;12.88;;;5.18;;
41468;SDS011;27206;47.032;15.484;2023-04-08T01:10:44;9.73;;;4.88;;
41468;SDS011;27206;47.032;15.484;2023-04-08T01:13:16;12.35;;;5.72;;
41468;SDS011;27206;47.032;15.484;2023-04-08T01:15:44;14.98;;;6.05;;
41468;SDS011;27206;47.032;15.484;2023-04-08T01:18:11;12.52;;;4.90;;
41468;SDS011;27206;47.032;15.484;2023-04-08T01:20:39;13.35;;;5.75;;
41468;SDS011;27206;47.032;15.484;2023-04-08T01:25:54;11.90;;;5.50;;
41468;SDS011;27206;47.032;15.484;2023-04-08T01:28:21;9.55;;;5.22;;
41468;SDS011;27206;47.032;15.484;2023-04-08T01:30:49;13.00;;;6.15;;
41468;SDS011;27206;47.032;15.484;2023-04-08T01:33:16;12.32;;;5.75;;
41468;SDS011;27206;47.032;15.484;2023-04-08T01:35:43;11.95;;;5.32;;
41468;SDS011;27206;47.032;15.484;2023-04-08T01:38:13;14.18;;;6.40;;
41468;SDS011;27206;47.032;15.484;2023-04-08T01:40:42;11.93;;;5.38;;
41468;SDS011;27206;47.032;15.484;2023-04-08T01:43:10;11.57;;;5.25;;
41468;SDS011;27206;47.032;15.484;2023-04-08T01:45:38;14.13;;;5.60;;
41468;SDS011;27206;47.032;15.484;2023-04-08T01:48:04;15.30;;;5.45;;
41468;SDS011;27206;47.032;15.484;2023-04-08T01:50:31;13.85;;;6.35;;
41468;SDS011;27206;47.032;15.484;2023-04-08T01:52:58;10.23;;;5.55;;
41468;SDS011;27206;47.032;15.484;2023-04-08T01:55:25;11.48;;;5.40;;
41468;SDS011;27206;47.032;15.484;2023-04-08T01:57:51;11.68;;;5.38;;
41468;SDS011;27206;47.032;15.484;2023-04-08T02:00:24;11.68;;;5.78;;
41468;SDS011;27206;47.032;15.484;2023-04-08T02:02:53;12.38;;;5.90;;
41468;SDS011;27206;47.032;15.484;2023-04-08T02:05:19;11.32;;;5.65;;
41468;SDS011;27206;47.032;15.484;2023-04-08T02:07:48;14.93;;;5.75;;
41468;SDS011;27206;47.032;15.484;2023-04-08T02:10:14;12.68;;;5.88;;
41468;SDS011;27206;47.032;15.484;2023-04-08T02:12:40;13.90;;;5.25;;
41468;SDS011;27206;47.032;15.484;2023-04-08T02:15:08;10.20;;;5.43;;
41468;SDS011;27206;47.032;15.484;2023-04-08T02:17:37;15.02;;;6.60;;
41468;SDS011;27206;47.032;15.484;2023-04-08T02:20:10;13.90;;;5.45;;
41468;SDS011;27206;47.032;15.484;2023-04-08T02:22:42;13.85;;;5.88;;
41468;SDS011;27206;47.032;15.484;2023-04-08T02:25:14;15.50;;;6.00;;
41468;SDS011;27206;47.032;15.484;2023-04-08T02:27:42;13.98;;;5.55;;
41468;SDS011;27206;47.032;15.484;2023-04-08T02:30:10;12.90;;;6.18;;
41468;SDS011;27206;47.032;15.484;2023-04-08T02:32:37;11.50;;;5.50;;
41468;SDS011;27206;47.032;15.484;2023-04-08T02:35:03;11.32;;;5.53;;
41468;SDS011;27206;47.032;15.484;2023-04-08T02:37:30;13.50;;;5.72;;
41468;SDS011;27206;47.032;15.484;2023-04-08T02:39:56;11.48;;;5.72;;
41468;SDS011;27206;47.032;15.484;2023-04-08T02:42:22;9.45;;;4.80;;
41468;SDS011;27206;47.032;15.484;2023-04-08T02:44:48;12.18;;;5.40;;
41468;SDS011;27206;47.032;15.484;2023-04-08T02:47:14;13.70;;;5.80;;
41468;SDS011;27206;47.032;15.484;2023-04-08T02:49:40;10.45;;;5.38;;
41468;SDS011;27206;47.032;15.484;2023-04-08T02:52:06;15.23;;;6.13;;
41468;SDS011;27206;47.032;15.484;2023-04-08T02:54:32;11.68;;;5.10;;
41468;SDS011;27206;47.032;15.484;2023-04-08T02:56:57;11.55;;;5.03;;
41468;SDS011;27206;47.032;15.484;2023-04-08T02:59:23;13.68;;;5.43;;
41468;SDS011;27206;47.032;15.484;2023-04-08T03:01:48;14.38;;;5.57;;
41468;SDS011;27206;47.032;15.484;2023-04-08T03:04:14;11.90;;;5.10;;
41468;SDS011;27206;47.032;15.484;2023-04-08T03:06:40;10.75;;;5.20;;
41468;SDS011;27206;47.032;15.484;2023-04-08T03:09:06;13.48;;;6.28;;
41468;SDS011;27206;47.032;15.484;2023-04-08T03:11:32;11.63;;;5.85;;
41468;SDS011;27206;47.032;15.484;2023-04-08T03:13:58;11.45;;;5.45;;
41468;SDS011;27206;47.032;15.484;2023-04-08T03:16:23;14.13;;;5.88;;
41468;SDS011;27206;47.032;15.484;2023-04-08T03:18:49;13.35;;;6.28;;
41468;SDS011;27206;47.032;15.484;2023-04-08T03:21:15;13.57;;;5.90;;
41468;SDS011;27206;47.032;15.484;2023-04-08T03:23:41;14.65;;;6.28;;
41468;SDS011;27206;47.032;15.484;2023-04-08T03:26:07;11.35;;;6.13;;
41468;SDS011;27206;47.032;15.484;2023-04-08T03:28:33;14.75;;;5.88;;
41468;SDS011;27206;47.032;15.484;2023-04-08T03:30:58;14.50;;;6.32;;
41468;SDS011;27206;47.032;15.484;2023-04-08T03:33:27;13.15;;;6.18;;
41468;SDS011;27206;47.032;15.484;2023-04-08T03:35:53;11.82;;;6.00;;
41468;SDS011;27206;47.032;15.484;2023-04-08T03:38:19;15.25;;;7.10;;
41468;SDS011;27206;47.032;15.484;2023-04-08T03:40:45;11.65;;;5.85;;
41468;SDS011;27206;47.032;15.484;2023-04-08T03:43:10;12.07;;;5.53;;
41468;SDS011;27206;47.032;15.484;2023-04-08T03:45:37;15.80;;;5.97;;
41468;SDS011;27206;47.032;15.484;2023-04-08T03:48:03;10.40;;;5.47;;
41468;SDS011;27206;47.032;15.484;2023-04-08T03:50:28;11.70;;;5.43;;
41468;SDS011;27206;47.032;15.484;2023-04-08T03:52:54;13.00;;;5.97;;
41468;SDS011;27206;47.032;15.484;2023-04-08T03:55:20;14.20;;;6.03;;
41468;SDS011;27206;47.032;15.484;2023-04-08T03:57:45;12.40;;;6.32;;
41468;SDS011;27206;47.032;15.484;2023-04-08T04:00:11;12.95;;;6.22;;
41468;SDS011;27206;47.032;15.484;2023-04-08T04:02:38;13.02;;;6.38;;
41468;SDS011;27206;47.032;15.484;2023-04-08T04:05:04;15.75;;;6.53;;
41468;SDS011;27206;47.032;15.484;2023-04-08T04:07:29;12.77;;;5.95;;
41468;SDS011;27206;47.032;15.484;2023-04-08T04:09:55;11.23;;;5.82;;
41468;SDS011;27206;47.032;15.484;2023-04-08T04:12:21;15.93;;;6.35;;
41468;SDS011;27206;47.032;15.484;2023-04-08T04:14:47;14.63;;;5.95;;
41468;SDS011;27206;47.032;15.484;2023-04-08T04:17:13;12.65;;;6.13;;
41468;SDS011;27206;47.032;15.484;2023-04-08T04:19:39;12.95;;;6.72;;
41468;SDS011;27206;47.032;15.484;2023-04-08T04:22:04;13.48;;;6.70;;
41468;SDS011;27206;47.032;15.484;2023-04-08T04:24:30;17.70;;;7.57;;
41468;SDS011;27206;47.032;15.484;2023-04-08T04:26:56;22.20;;;7.35;;
41468;SDS011;27206;47.032;15.484;2023-04-08T04:29:22;16.02;;;7.40;;
41468;SDS011;27206;47.032;15.484;2023-04-08T04:31:47;15.18;;;6.80;;
41468;SDS011;27206;47.032;15.484;2023-04-08T04:34:13;13.60;;;6.10;;
41468;SDS011;27206;47.032;15.484;2023-04-08T04:36:38;15.77;;;6.47;;
41468;SDS011;27206;47.032;15.484;2023-04-08T04:39:04;14.02;;;6.00;;
41468;SDS011;27206;47.032;15.484;2023-04-08T04:41:30;12.95;;;6.25;;
41468;SDS011;27206;47.032;15.484;2023-04-08T04:43:56;15.55;;;6.70;;
41468;SDS011;27206;47.032;15.484;2023-04-08T04:46:21;13.77;;;6.78;;
41468;SDS011;27206;47.032;15.484;2023-04-08T04:48:47;17.33;;;7.43;;
41468;SDS011;27206;47.032;15.484;2023-04-08T04:51:12;13.93;;;6.00;;
41468;SDS011;27206;47.032;15.484;2023-04-08T04:53:38;12.75;;;6.70;;
41468;SDS011;27206;47.032;15.484;2023-04-08T04:56:04;16.67;;;6.50;;
41468;SDS011;27206;47.032;15.484;2023-04-08T04:58:30;13.38;;;6.82;;
41468;SDS011;27206;47.032;15.484;2023-04-08T05:00:55;19.33;;;7.60;;
41468;SDS011;27206;47.032;15.484;2023-04-08T05:03:21;16.13;;;6.70;;
41468;SDS011;27206;47.032;15.484;2023-04-08T05:05:50;17.40;;;7.50;;
41468;SDS011;27206;47.032;15.484;2023-04-08T05:08:17;13.52;;;7.00;;
41468;SDS011;27206;47.032;15.484;2023-04-08T05:10:43;15.07;;;7.40;;
41468;SDS011;27206;47.032;15.484;2023-04-08T05:13:08;17.90;;;8.38;;
41468;SDS011;27206;47.032;15.484;2023-04-08T05:15:34;17.23;;;7.25;;
41468;SDS011;27206;47.032;15.484;2023-04-08T05:18:00;16.60;;;8.07;;
41468;SDS011;27206;47.032;15.484;2023-04-08T05:20:25;14.05;;;6.93;;
41468;SDS011;27206;47.032;15.484;2023-04-08T05:22:51;16.35;;;7.75;;
41468;SDS011;27206;47.032;15.484;2023-04-08T05:25:17;16.88;;;7.68;;
41468;SDS011;27206;47.032;15.484;2023-04-08T05:27:42;14.07;;;7.22;;
41468;SDS011;27206;47.032;15.484;2023-04-08T05:30:08;16.60;;;7.45;;
41468;SDS011;27206;47.032;15.484;2023-04-08T05:32:34;17.77;;;7.72;;
41468;SDS011;27206;47.032;15.484;2023-04-08T05:35:03;15.38;;;7.63;;
41468;SDS011;27206;47.032;15.484;2023-04-08T05:37:29;18.42;;;7.57;;
41468;SDS011;27206;47.032;15.484;2023-04-08T05:39:55;18.45;;;8.00;;
41468;SDS011;27206;47.032;15.484;2023-04-08T05:42:21;15.93;;;7.32;;
41468;SDS011;27206;47.032;15.484;2023-04-08T05:44:46;16.90;;;7.93;;
41468;SDS011;27206;47.032;15.484;2023-04-08T05:47:12;16.65;;;7.25;;
41468;SDS011;27206;47.032;15.484;2023-04-08T05:49:38;17.52;;;7.45;;
41468;SDS011;27206;47.032;15.484;2023-04-08T05:52:04;15.18;;;7.32;;
41468;SDS011;27206;47.032;15.484;2023-04-08T05:54:30;18.35;;;8.02;;
41468;SDS011;27206;47.032;15.484;2023-04-08T05:56:56;17.65;;;7.75;;
41468;SDS011;27206;47.032;15.484;2023-04-08T05:59:22;16.80;;;7.45;;
41468;SDS011;27206;47.032;15.484;2023-04-08T06:01:48;15.02;;;7.75;;
41468;SDS011;27206;47.032;15.484;2023-04-08T06:04:14;17.48;;;7.57;;
41468;SDS011;27206;47.032;15.484;2023-04-08T06:06:41;17.85;;;7.85;;
41468;SDS011;27206;47.032;15.484;2023-04-08T06:09:07;13.95;;;6.25;;
41468;SDS011;27206;47.032;15.484;2023-04-08T06:11:34;14.00;;;6.57;;
41468;SDS011;27206;47.032;15.484;2023-04-08T06:13:59;17.73;;;7.32;;
41468;SDS011;27206;47.032;15.484;2023-04-08T06:16:25;17.05;;;7.18;;
41468;SDS011;27206;47.032;15.484;2023-04-08T06:18:51;14.95;;;6.80;;
41468;SDS011;27206;47.032;15.484;2023-04-08T06:21:17;14.93;;;7.13;;
41468;SDS011;27206;47.032;15.484;2023-04-08T06:23:42;18.20;;;7.50;;
41468;SDS011;27206;47.032;15.484;2023-04-08T06:26:08;19.55;;;8.55;;
41468;SDS011;27206;47.032;15.484;2023-04-08T06:28:34;20.73;;;7.88;;
41468;SDS011;27206;47.032;15.484;2023-04-08T06:31:00;15.88;;;7.72;;
41468;SDS011;27206;47.032;15.484;2023-04-08T06:33:25;18.65;;;7.90;;
41468;SDS011;27206;47.032;15.484;2023-04-08T06:35:51;16.77;;;7.47;;
41468;SDS011;27206;47.032;15.484;2023-04-08T06:38:25;16.30;;;7.28;;
41468;SDS011;27206;47.032;15.484;2023-04-08T06:40:50;20.95;;;8.57;;
41468;SDS011;27206;47.032;15.484;2023-04-08T06:43:16;17.85;;;7.57;;
41468;SDS011;27206;47.032;15.484;2023-04-08T06:45:41;17.40;;;7.55;;
41468;SDS011;27206;47.032;15.484;2023-04-08T06:48:07;19.80;;;7.90;;
41468;SDS011;27206;47.032;15.484;2023-04-08T06:50:33;18.08;;;7.45;;
41468;SDS011;27206;47.032;15.484;2023-04-08T06:52:59;15.50;;;6.65;;
41468;SDS011;27206;47.032;15.484;2023-04-08T06:55:24;15.85;;;6.75;;
41468;SDS011;27206;47.032;15.484;2023-04-08T06:57:51;19.80;;;7.20;;
41468;SDS011;27206;47.032;15.484;2023-04-08T07:00:16;19.40;;;7.20;;
41468;SDS011;27206;47.032;15.484;2023-04-08T07:02:42;11.25;;;5.93;;
41468;SDS011;27206;47.032;15.484;2023-04-08T07:05:08;15.45;;;6.35;;
41468;SDS011;27206;47.032;15.484;2023-04-08T07:07:35;14.98;;;6.65;;
41468;SDS011;27206;47.032;15.484;2023-04-08T07:10:01;15.85;;;6.88;;
41468;SDS011;27206;47.032;15.484;2023-04-08T07:12:27;18.33;;;7.03;;
41468;SDS011;27206;47.032;15.484;2023-04-08T07:14:52;18.27;;;7.40;;
41468;SDS011;27206;47.032;15.484;2023-04-08T07:17:18;14.85;;;7.05;;
41468;SDS011;27206;47.032;15.484;2023-04-08T07:19:44;14.55;;;6.95;;
41468;SDS011;27206;47.032;15.484;2023-04-08T07:22:09;13.50;;;6.72;;
41468;SDS011;27206;47.032;15.484;2023-04-08T07:24:35;13.63;;;6.75;;
41468;SDS011;27206;47.032;15.484;2023-04-08T07:27:02;14.63;;;6.25;;
41468;SDS011;27206;47.032;15.484;2023-04-08T07:29:28;15.50;;;7.07;;
41468;SDS011;27206;47.032;15.484;2023-04-08T07:31:56;16.35;;;6.90;;
41468;SDS011;27206;47.032;15.484;2023-04-08T07:34:21;14.55;;;6.72;;
41468;SDS011;27206;47.032;15.484;2023-04-08T07:36:47;16.42;;;7.10;;
41468;SDS011;27206;47.032;15.484;2023-04-08T07:39:13;20.50;;;7.07;;
41468;SDS011;27206;47.032;15.484;2023-04-08T07:41:38;14.07;;;7.13;;
41468;SDS011;27206;47.032;15.484;2023-04-08T07:44:04;14.02;;;6.75;;
41468;SDS011;27206;47.032;15.484;2023-04-08T07:46:30;13.45;;;6.43;;
41468;SDS011;27206;47.032;15.484;2023-04-08T07:48:57;15.20;;;6.63;;
41468;SDS011;27206;47.032;15.484;2023-04-08T07:51:23;14.35;;;6.30;;
41468;SDS011;27206;47.032;15.484;2023-04-08T07:53:49;12.95;;;6.40;;
41468;SDS011;27206;47.032;15.484;2023-04-08T07:56:14;14.05;;;6.40;;
41468;SDS011;27206;47.032;15.484;2023-04-08T07:58:42;20.95;;;6.57;;
41468;SDS011;27206;47.032;15.484;2023-04-08T08:01:17;16.52;;;7.13;;
41468;SDS011;27206;47.032;15.484;2023-04-08T08:03:46;15.52;;;7.20;;
41468;SDS011;27206;47.032;15.484;2023-04-08T08:06:12;11.98;;;5.72;;
41468;SDS011;27206;47.032;15.484;2023-04-08T08:08:38;11.85;;;5.53;;
41468;SDS011;27206;47.032;15.484;2023-04-08T08:11:03;14.95;;;6.15;;
41468;SDS011;27206;47.032;15.484;2023-04-08T08:13:29;16.60;;;6.45;;
41468;SDS011;27206;47.032;15.484;2023-04-08T08:15:55;14.68;;;5.55;;
41468;SDS011;27206;47.032;15.484;2023-04-08T08:18:21;16.17;;;6.75;;
41468;SDS011;27206;47.032;15.484;2023-04-08T08:20:46;9.40;;;5.03;;
41468;SDS011;27206;47.032;15.484;2023-04-08T08:23:12;12.15;;;5.57;;
41468;SDS011;27206;47.032;15.484;2023-04-08T08:25:38;9.35;;;4.57;;
41468;SDS011;27206;47.032;15.484;2023-04-08T08:28:03;11.35;;;5.22;;
41468;SDS011;27206;47.032;15.484;2023-04-08T08:30:29;8.98;;;4.70;;
41468;SDS011;27206;47.032;15.484;2023-04-08T08:32:55;9.77;;;5.15;;
41468;SDS011;27206;47.032;15.484;2023-04-08T08:35:23;13.77;;;4.60;;
41468;SDS011;27206;47.032;15.484;2023-04-08T08:37:48;8.88;;;4.63;;
41468;SDS011;27206;47.032;15.484;2023-04-08T08:40:14;10.82;;;4.55;;
41468;SDS011;27206;47.032;15.484;2023-04-08T08:42:40;8.68;;;4.15;;
41468;SDS011;27206;47.032;15.484;2023-04-08T08:45:14;10.52;;;4.80;;
41468;SDS011;27206;47.032;15.484;2023-04-08T08:47:40;11.05;;;5.07;;
41468;SDS011;27206;47.032;15.484;2023-04-08T08:50:06;10.32;;;5.05;;
41468;SDS011;27206;47.032;15.484;2023-04-08T08:52:31;8.60;;;4.35;;
41468;SDS011;27206;47.032;15.484;2023-04-08T08:54:57;12.23;;;4.95;;
41468;SDS011;27206;47.032;15.484;2023-04-08T08:57:23;10.68;;;4.93;;
41468;SDS011;27206;47.032;15.484;2023-04-08T08:59:49;19.23;;;8.68;;
41468;SDS011;27206;47.032;15.484;2023-04-08T09:02:25;12.48;;;5.65;;
41468;SDS011;27206;47.032;15.484;2023-04-08T09:04:59;11.85;;;5.30;;
41468;SDS011;27206;47.032;15.484;2023-04-08T09:07:29;11.43;;;5.22;;
41468;SDS011;27206;47.032;15.484;2023-04-08T09:09:56;9.73;;;4.93;;
41468;SDS011;27206;47.032;15.484;2023-04-08T09:12:24;11.52;;;6.03;;
41468;SDS011;27206;47.032;15.484;2023-04-08T09:15:00;11.27;;;5.75;;
41468;SDS011;27206;47.032;15.484;2023-04-08T09:17:30;20.10;;;7.45;;
41468;SDS011;27206;47.032;15.484;2023-04-08T09:20:03;10.85;;;5.93;;
41468;SDS011;27206;47.032;15.484;2023-04-08T09:22:55;10.90;;;5.00;;
41468;SDS011;27206;47.032;15.484;2023-04-08T09:25:22;11.65;;;5.47;;
41468;SDS011;27206;47.032;15.484;2023-04-08T09:27:49;11.20;;;5.97;;
41468;SDS011;27206;47.032;15.484;2023-04-08T09:30:16;11.77;;;5.57;;
41468;SDS011;27206;47.032;15.484;2023-04-08T09:32:52;11.05;;;5.38;;
41468;SDS011;27206;47.032;15.484;2023-04-08T09:35:19;10.88;;;5.20;;
41468;SDS011;27206;47.032;15.484;2023-04-08T09:37:46;11.98;;;6.03;;
41468;SDS011;27206;47.032;15.484;2023-04-08T09:40:12;10.50;;;5.22;;
41468;SDS011;27206;47.032;15.484;2023-04-08T09:42:46;12.57;;;5.70;;
41468;SDS011;27206;47.032;15.484;2023-04-08T09:45:15;11.65;;;5.30;;
41468;SDS011;27206;47.032;15.484;2023-04-08T09:48:03;9.40;;;4.90;;
41468;SDS011;27206;47.032;15.484;2023-04-08T09:50:42;12.88;;;5.22;;
41468;SDS011;27206;47.032;15.484;2023-04-08T09:53:27;11.57;;;5.68;;
41468;SDS011;27206;47.032;15.484;2023-04-08T09:55:57;10.68;;;5.43;;
41468;SDS011;27206;47.032;15.484;2023-04-08T09:58:27;12.52;;;5.85;;
41468;SDS011;27206;47.032;15.484;2023-04-08T10:00:56;9.77;;;5.10;;
41468;SDS011;27206;47.032;15.484;2023-04-08T10:03:31;11.65;;;5.55;;
41468;SDS011;27206;47.032;15.484;2023-04-08T10:06:05;9.90;;;5.30;;
41468;SDS011;27206;47.032;15.484;2023-04-08T10:08:34;9.00;;;5.47;;
41468;SDS011;27206;47.032;15.484;2023-04-08T10:11:00;12.65;;;5.18;;
41468;SDS011;27206;47.032;15.484;2023-04-08T10:13:26;11.98;;;5.47;;
41468;SDS011;27206;47.032;15.484;2023-04-08T10:18:51;9.95;;;5.32;;
41468;SDS011;27206;47.032;15.484;2023-04-08T10:24:02;10.52;;;5.35;;
41468;SDS011;27206;47.032;15.484;2023-04-08T10:26:38;10.15;;;5.10;;
41468;SDS011;27206;47.032;15.484;2023-04-08T10:31:49;11.93;;;6.03;;
41468;SDS011;27206;47.032;15.484;2023-04-08T10:34:16;11.10;;;5.38;;
41468;SDS011;27206;47.032;15.484;2023-04-08T10:36:42;11.95;;;5.40;;
41468;SDS011;27206;47.032;15.484;2023-04-08T10:39:08;9.57;;;5.00;;
41468;SDS011;27206;47.032;15.484;2023-04-08T10:41:34;9.85;;;5.32;;
41468;SDS011;27206;47.032;15.484;2023-04-08T10:44:13;10.68;;;5.15;;
41468;SDS011;27206;47.032;15.484;2023-04-08T10:46:47;12.07;;;5.57;;
41468;SDS011;27206;47.032;15.484;2023-04-08T10:49:15;12.50;;;5.57;;
41468;SDS011;27206;47.032;15.484;2023-04-08T10:51:42;15.70;;;5.03;;
41468;SDS011;27206;47.032;15.484;2023-04-08T10:54:11;14.00;;;5.78;;
41468;SDS011;27206;47.032;15.484;2023-04-08T10:56:45;9.77;;;4.85;;
41468;SDS011;27206;47.032;15.484;2023-04-08T10:59:12;11.70;;;5.45;;
41468;SDS011;27206;47.032;15.484;2023-04-08T11:01:44;9.88;;;4.85;;
41468;SDS011;27206;47.032;15.484;2023-04-08T11:04:14;8.82;;;4.93;;
41468;SDS011;27206;47.032;15.484;2023-04-08T11:06:42;9.20;;;4.70;;
41468;SDS011;27206;47.032;15.484;2023-04-08T11:09:08;10.40;;;5.28;;
41468;SDS011;27206;47.032;15.484;2023-04-08T11:11:34;9.27;;;4.50;;
41468;SDS011;27206;47.032;15.484;2023-04-08T11:14:01;9.25;;;4.75;;
41468;SDS011;27206;47.032;15.484;2023-04-08T11:16:27;9.55;;;4.95;;
41468;SDS011;27206;47.032;15.484;2023-04-08T11:18:53;10.35;;;4.93;;
41468;SDS011;27206;47.032;15.484;2023-04-08T11:21:19;10.15;;;5.07;;
41468;SDS011;27206;47.032;15.484;2023-04-08T11:23:50;9.45;;;4.80;;
41468;SDS011;27206;47.032;15.484;2023-04-08T11:26:17;10.63;;;4.97;;
41468;SDS011;27206;47.032;15.484;2023-04-08T11:28:44;8.48;;;4.55;;
41468;SDS011;27206;47.032;15.484;2023-04-08T11:31:11;9.23;;;4.65;;
41468;SDS011;27206;47.032;15.484;2023-04-08T11:33:37;10.23;;;5.13;;
41468;SDS011;27206;47.032;15.484;2023-04-08T11:36:08;11.07;;;5.40;;
41468;SDS011;27206;47.032;15.484;2023-04-08T11:38:37;9.18;;;4.78;;
41468;SDS011;27206;47.032;15.484;2023-04-08T11:41:05;8.13;;;3.95;;
41468;SDS011;27206;47.032;15.484;2023-04-08T11:43:31;7.95;;;4.43;;
41468;SDS011;27206;47.032;15.484;2023-04-08T11:45:56;12.98;;;4.45;;
41468;SDS011;27206;47.032;15.484;2023-04-08T11:48:22;8.55;;;4.50;;
41468;SDS011;27206;47.032;15.484;2023-04-08T11:50:49;7.28;;;3.60;;
41468;SDS011;27206;47.032;15.484;2023-04-08T11:53:28;8.32;;;3.80;;
41468;SDS011;27206;47.032;15.484;2023-04-08T11:55:53;7.38;;;4.25;;
41468;SDS011;27206;47.032;15.484;2023-04-08T11:58:20;7.47;;;3.97;;
41468;SDS011;27206;47.032;15.484;2023-04-08T12:00:45;7.60;;;4.50;;
41468;SDS011;27206;47.032;15.484;2023-04-08T12:03:14;8.88;;;4.50;;
41468;SDS011;27206;47.032;15.484;2023-04-08T12:05:40;8.05;;;4.15;;
41468;SDS011;27206;47.032;15.484;2023-04-08T12:08:06;7.07;;;4.15;;
41468;SDS011;27206;47.032;15.484;2023-04-08T12:10:32;6.30;;;3.38;;
41468;SDS011;27206;47.032;15.484;2023-04-08T12:12:57;10.35;;;4.70;;
41468;SDS011;27206;47.032;15.484;2023-04-08T12:15:23;7.93;;;4.60;;
41468;SDS011;27206;47.032;15.484;2023-04-08T12:17:49;9.40;;;4.78;;
41468;SDS011;27206;47.032;15.484;2023-04-08T12:20:14;7.05;;;3.70;;
41468;SDS011;27206;47.032;15.484;2023-04-08T12:22:41;7.22;;;3.92;;
41468;SDS011;27206;47.032;15.484;2023-04-08T12:25:07;6.97;;;3.38;;
41468;SDS011;27206;47.032;15.484;2023-04-08T12:27:32;7.85;;;3.95;;
41468;SDS011;27206;47.032;15.484;2023-04-08T12:30:01;9.10;;;3.83;;
41468;SDS011;27206;47.032;15.484;2023-04-08T12:32:27;6.75;;;4.05;;
41468;SDS011;27206;47.032;15.484;2023-04-08T12:34:53;6.63;;;3.47;;
41468;SDS011;27206;47.032;15.484;2023-04-08T12:37:20;6.70;;;3.28;;
41468;SDS011;27206;47.032;15.484;2023-04-08T12:39:45;7.40;;;3.80;;
41468;SDS011;27206;47.032;15.484;2023-04-08T12:42:11;5.53;;;3.10;;
41468;SDS011;27206;47.032;15.484;2023-04-08T12:44:37;5.95;;;2.97;;
41468;SDS011;27206;47.032;15.484;2023-04-08T12:47:03;7.72;;;3.55;;
41468;SDS011;27206;47.032;15.484;2023-04-08T12:49:28;6.32;;;3.63;;
41468;SDS011;27206;47.032;15.484;2023-04-08T12:51:54;8.80;;;4.30;;
41468;SDS011;27206;47.032;15.484;2023-04-08T12:54:20;7.80;;;4.05;;
41468;SDS011;27206;47.032;15.484;2023-04-08T12:56:45;9.10;;;4.13;;
41468;SDS011;27206;47.032;15.484;2023-04-08T12:59:12;6.65;;;3.42;;
41468;SDS011;27206;47.032;15.484;2023-04-08T13:01:39;9.45;;;4.63;;
41468;SDS011;27206;47.032;15.484;2023-04-08T13:04:05;10.60;;;4.60;;
41468;SDS011;27206;47.032;15.484;2023-04-08T13:06:30;9.80;;;4.32;;
41468;SDS011;27206;47.032;15.484;2023-04-08T13:08:56;9.63;;;4.63;;
41468;SDS011;27206;47.032;15.484;2023-04-08T13:11:22;9.68;;;4.80;;
41468;SDS011;27206;47.032;15.484;2023-04-08T13:13:48;8.35;;;4.43;;
41468;SDS011;27206;47.032;15.484;2023-04-08T13:16:14;8.95;;;4.68;;
41468;SDS011;27206;47.032;15.484;2023-04-08T13:18:40;9.18;;;4.63;;
41468;SDS011;27206;47.032;15.484;2023-04-08T13:21:06;8.32;;;4.90;;
41468;SDS011;27206;47.032;15.484;2023-04-08T13:23:32;9.15;;;4.85;;
41468;SDS011;27206;47.032;15.484;2023-04-08T13:25:58;10.25;;;4.88;;
41468;SDS011;27206;47.032;15.484;2023-04-08T13:28:25;9.85;;;5.38;;
41468;SDS011;27206;47.032;15.484;2023-04-08T13:30:50;10.35;;;5.30;;
41468;SDS011;27206;47.032;15.484;2023-04-08T13:33:16;11.75;;;5.43;;
41468;SDS011;27206;47.032;15.484;2023-04-08T13:35:42;10.38;;;5.03;;
41468;SDS011;27206;47.032;15.484;2023-04-08T13:38:07;9.02;;;5.07;;
41468;SDS011;27206;47.032;15.484;2023-04-08T13:40:33;13.20;;;5.57;;
41468;SDS011;27206;47.032;15.484;2023-04-08T13:42:59;9.65;;;5.40;;
41468;SDS011;27206;47.032;15.484;2023-04-08T13:45:25;12.13;;;5.18;;
41468;SDS011;27206;47.032;15.484;2023-04-08T13:47:51;10.52;;;5.28;;
41468;SDS011;27206;47.032;15.484;2023-04-08T13:50:16;11.98;;;5.18;;
41468;SDS011;27206;47.032;15.484;2023-04-08T13:52:42;10.27;;;4.93;;
41468;SDS011;27206;47.032;15.484;2023-04-08T13:55:08;9.15;;;4.90;;
41468;SDS011;27206;47.032;15.484;2023-04-08T13:57:33;11.25;;;5.10;;
41468;SDS011;27206;47.032;15.484;2023-04-08T13:59:59;9.32;;;5.05;;
41468;SDS011;27206;47.032;15.484;2023-04-08T14:02:25;10.50;;;4.80;;
41468;SDS011;27206;47.032;15.484;2023-04-08T14:04:51;12.52;;;5.50;;
41468;SDS011;27206;47.032;15.484;2023-04-08T14:07:17;20.98;;;9.00;;
41468;SDS011;27206;47.032;15.484;2023-04-08T14:09:43;18.33;;;8.00;;
41468;SDS011;27206;47.032;15.484;2023-04-08T14:12:09;12.75;;;5.93;;
41468;SDS011;27206;47.032;15.484;2023-04-08T14:14:35;12.75;;;6.00;;
41468;SDS011;27206;47.032;15.484;2023-04-08T14:17:00;13.15;;;5.57;;
41468;SDS011;27206;47.032;15.484;2023-04-08T14:19:26;13.10;;;6.18;;
41468;SDS011;27206;47.032;15.484;2023-04-08T14:21:52;11.85;;;5.75;;
41468;SDS011;27206;47.032;15.484;2023-04-08T14:24:17;13.85;;;5.68;;
41468;SDS011;27206;47.032;15.484;2023-04-08T14:26:43;13.52;;;5.88;;
41468;SDS011;27206;47.032;15.484;2023-04-08T14:29:09;10.52;;;5.10;;
41468;SDS011;27206;47.032;15.484;2023-04-08T14:31:35;12.15;;;5.30;;
41468;SDS011;27206;47.032;15.484;2023-04-08T14:34:02;11.38;;;4.90;;
41468;SDS011;27206;47.032;15.484;2023-04-08T14:36:27;8.88;;;4.53;;
41468;SDS011;27206;47.032;15.484;2023-04-08T14:38:54;11.45;;;5.95;;